Web Počasí Slunečno.cz™ (Podmínky, ePrivacy) používá cookies a personalizace pro reklamní účely. Pohybem po stránce vyjadřujete souhlas. Odejít

Aktuální počasí v Česku a ve světě - METAR

Seznam meteostanic umístěných nejčasteji na letišti v ČR a ve světě

Vyhledat místa podle abecedy:
A B C D E F G H I J K L M N O P Q R S T U V W X Y Z

Filtrovat:

ID stanice:
a/nebo
Název místa (fulltext):
 
Místo (ID)Naposledy načteno 
Aalborg (EKYT) 04.12.2021 10:51 UTC Zobrazit METAR
EKYT 041051Z 07009KT 9999 OVC009 01/M01 Q0999
Aarhus (EKAH) 04.12.2021 10:50 UTC Zobrazit METAR
EKAH 041050Z AUTO 02007KT 9999 OVC010/// 02/01 Q0998
Abu Dhabi (OMAA) 04.12.2021 11:00 UTC Zobrazit METAR
OMAA 041100Z 29015KT 9999 FEW040 25/13 Q1016 NOSIG
Abuja (DNAA) 04.12.2021 11:00 UTC Zobrazit METAR
DNAA 041100Z 10003KT 5000 HZ NSC 33/20 Q1013 NOSIG
Accra (DGAA) 04.12.2021 11:00 UTC Zobrazit METAR
DGAA 041100Z 22006KT 180V250 9999 BKN015 30/25 Q1011 NOSIG
Addis Abeba (HAAB) 25.09.2021 12:00 UTC Zobrazit METAR
HAAB 251200Z 08010KT 9000 BKN025 SCT057 19/10 Q1024
Agana (PGUM) 04.12.2021 10:54 UTC Zobrazit METAR
PGUM 041054Z 05003KT 10SM CLR 26/23 A2979 RMK AO2 SLP081 T02610233
Ahe Island (NTHE) Zatím nenačteno  
Akureyri (BIAR) 04.12.2021 11:00 UTC Zobrazit METAR
BIAR 041100Z 17003KT CAVOK M11/M12 Q1006
Almaty (UAAA) Zatím nenačteno  
Amman (OJAM) 04.12.2021 11:00 UTC Zobrazit METAR
OJAM 041100Z 08003KT 5000 HZ NSC 18/03 Q1017 NOSIG
Amsterdam (EHAM) 04.12.2021 10:55 UTC Zobrazit METAR
EHAM 041055Z 16007KT 140V200 2000 BR FEW002 BKN003 OVC004 05/05 Q0994 BECMG 3000 -RA
Antananarivo (FMMI) 04.12.2021 11:00 UTC Zobrazit METAR
FMMI 041100Z 11011KT 080V180 9999 SCT020 27/16 Q1022 NOSIG
Antwerp (EBAW) 04.12.2021 10:50 UTC Zobrazit METAR
EBAW 041050Z 21006KT 9999 BKN008 06/03 Q0995 TEMPO 4000 BR
Apia (NSFA) 04.12.2021 11:00 UTC Zobrazit METAR
NSFA 041100Z 06004KT 9999 FEW022 BKN160 26/25 Q1010
Aruba I (TNCA) 04.12.2021 11:00 UTC Zobrazit METAR
TNCA 041100Z 08008KT 9999 FEW017 25/22 Q1012 TEMPO 4000 SHRA SCT014TCU
Ascension I. (FHAW) 01.12.2021 12:30 UTC Zobrazit METAR
FHAW 011230Z 19009KT 160V220 9999 SCT015 31/26 Q1010 NOSIG
Ashgabat (UTAA) 04.12.2021 11:00 UTC Zobrazit METAR
UTAA 041100Z VRB02KT 9999 OVC017 07/03 Q1023 R88/CLRD70 NOSIG
Asmara (HHAS) 03.02.2015 17:00 UTC Zobrazit METAR
HHAS 031700Z 27004KT CAVOK 15/06 Q1028 NOSIG
Astana (UACC) Zatím nenačteno  
Astrakhan (URWA) Zatím nenačteno  
Asuncion (SGAS) 04.12.2021 11:00 UTC Zobrazit METAR
SGAS 041100Z 10003KT 050V140 CAVOK 26/17 Q1011
Athens (LGAV) 04.12.2021 09:50 UTC Zobrazit METAR
LGAV 040950Z 21012KT 9999 FEW012 BKN025 BKN070 16/12 Q1010 NOSIG
Reklama

Reklama


Newslettter

Počasí na Váš email

Každý den Vám pošleme předpověď
Emaily chodí ráno a bez reklamy



Odhlásit newsletter

Reklama